Accueil
METAR-TAF:

METAR-TAF

Aéroports :

Aéroport international général Roberto Fierro Villalobos

Chihuahua, Mexique

latitude: 28-42N, longitude: 105-58W, altitude: 1360 m

Observation

Le bulletin a été fait il y a 41 minutes, à 21:40 UTC
Vent 6 kt de est/nord-est
Température 12°C
Humidité 17%
Pression 1028 hPa
Visibilité: 16.1 km
Ciel clair

METAR: MMCU 142140Z 06006KT 10SM SKC 12/M12 A3037

Heure: 15:21 (22:21 UTC)

Prévision

Le bulletin a été fait il y a 4 heures et 50 minutes, à 17:31 UTC
Prévision valable du 14 à 18 UTC au 15 à 18 UTC
Vent 6 kt de est/sud-est
Visibilité: 10 km
Nuages fragmentés à une hauteur de 30000 ft
A partir de 15 à 0200 UTC
Vent 6 kt de sud/sud-est
Visibilité: 10 km
Nuages fragmentés à une hauteur de 24000 ft

TAF: MMCU 141731Z 1418/1518 12006KT P6SM BKN300 FM150200 15006KT P6SM BKN240

Observations et prévisions météorologiques de plus de 4000 aéroports (messages METAR et TAF).

Les stations disponibles sont représentées par des disques jaunes et rouges sur la carte.

Passer la souris dessus pour voir le nom de la station.

Cliquer dessus pour voir les observations et prévisions météorologiques.

Pour changer de carte: cliquez sur les boutons verts avec une croix noire pour zoomer, sur le bouton vert avec un tiret pour effectuer un zoom arrière, ou sur les flèches vertes pour les cartes adjacentes.


METAR-TAF: